Time;durP1;ratioP1;P1;durP2;ratioP2;P2;SDS_P1;SDS_P2;PMS_P1;PMS_P2;Temp;Humidity;BMP_temperature;BMP_pressure;BME280_temperature;BME280_humidity;BME280_pressure;Samples;Min_cycle;Max_cycle;Signal;HPM_P1;HPM_P2
2022/03/23 16:09:53;;;;;;;;;;;;;;;14.57;28.18;99532.47;5595770;24;19968;-68
2022/03/23 16:12:20;;;;;;;;;;;;;;;14.52;28.05;99521.59;4826030;29;19952;-66
2022/03/23 16:14:47;;;;;;;;;;;;;;;14.51;28.49;99522.78;4818921;29;20242;-67
2022/03/23 16:17:15;;;;;;;;;;;;;;;14.45;29.07;99519.53;4837232;29;19958;-67
2022/03/23 16:19:43;;;;;;;;;;;;;;;14.53;28.05;99514.75;4827199;29;19974;-67
2022/03/23 16:22:10;;;;;;;;;;;;;;;14.59;27.72;99518.81;4830762;29;19957;-67
2022/03/23 16:24:37;;;;;;;;;;;;;;;14.54;28.08;99529.63;4829858;29;19956;-67
2022/03/23 16:27:05;;;;;;;;;;;;;;;14.48;28.30;99519.97;4829940;29;20373;-67
2022/03/23 16:29:33;;;;;;;;;;;;;;;14.41;28.32;99523.53;4829151;29;19956;-67
2022/03/23 16:32:00;;;;;;;;;;;;;;;14.35;28.22;99523.09;4828652;29;19948;-67
2022/03/23 16:34:29;;;;;;;;;;;;;;;14.30;28.35;99523.50;4829506;29;19955;-67
2022/03/23 16:36:57;;;;;;;;;;;;;;;14.27;28.75;99523.41;4829892;29;19959;-67
2022/03/23 16:39:25;;;;;;;;;;;;;;;14.21;28.91;99516.53;4830107;29;19959;-67
2022/03/23 16:41:52;;;;;;;;;;;;;;;14.16;29.10;99514.91;4829676;29;19951;-67
2022/03/23 16:44:22;;;;;;;;;;;;;;;14.14;28.96;99524.94;4828859;29;19952;-67
2022/03/23 16:46:50;;;;;;;;;;;;;;;14.13;29.25;99523.34;4830018;29;19958;-67
2022/03/23 16:49:17;;;;;;;;;;;;;;;14.11;29.31;99520.91;4829970;29;20034;-67
2022/03/23 16:51:45;;;;;;;;;;;;;;;14.04;29.49;99520.84;4829061;29;20242;-67
2022/03/23 16:54:13;;;;;;;;;;;;;;;14.00;29.29;99519.22;4829055;29;20345;-67
2022/03/23 16:56:43;;;;;;;;;;;;;;;13.98;29.38;99519.63;4829493;29;19949;-67
2022/03/23 16:59:11;;;;;;;;;;;;;;;13.93;29.61;99517.19;4830137;29;20025;-68
2022/03/23 17:01:38;;;;;;;;;;;;;;;13.90;29.52;99515.13;4828291;29;19960;-67
2022/03/23 17:12:27;;;;;;;;;;;;;;;13.72;29.50;99509.38;4847868;29;19951;-68
2022/03/23 17:15:02;;;;;;;;;;;;;;;13.66;29.63;99510.13;4830924;29;19950;-68
2022/03/23 17:17:30;;;;;;;;;;;;;;;13.57;29.94;99510.44;4830321;29;19956;-68
2022/03/23 17:19:58;;;;;;;;;;;;;;;13.49;29.77;99505.97;4829756;29;19956;-67
2022/03/23 17:22:26;;;;;;;;;;;;;;;13.41;30.16;99509.91;4828145;29;19956;-67
2022/03/23 17:24:54;;;;;;;;;;;;;;;13.33;29.79;99518.66;4829001;29;19955;-67
2022/03/23 17:27:23;;;;;;;;;;;;;;;13.31;29.46;99515.41;4828150;29;19949;-67
2022/03/23 17:29:51;;;;;;;;;;;;;;;13.20;29.86;99509.72;4829192;29;19967;-67
2022/03/23 17:32:19;;;;;;;;;;;;;;;13.14;29.78;99516.88;4827153;29;19965;-67
2022/03/23 17:34:46;;;;;;;;;;;;;;;13.05;29.99;99521.97;4810030;29;20252;-67
2022/03/23 17:37:15;;;;;;;;;;;;;;;13.00;30.23;99517.50;4833151;29;19978;-67
2022/03/23 17:39:42;;;;;;;;;;;;;;;12.97;30.72;99518.28;4828434;29;19960;-67
2022/03/23 17:42:11;;;;;;;;;;;;;;;12.94;30.52;99515.41;4829231;29;20235;-67
2022/03/23 17:44:41;;;;;;;;;;;;;;;12.93;30.53;99525.84;4828985;29;19944;-67
2022/03/23 17:47:09;;;;;;;;;;;;;;;12.83;30.98;99518.13;4827595;29;19955;-67
2022/03/23 17:49:38;;;;;;;;;;;;;;;12.78;30.43;99517.63;4813372;29;20527;-67
2022/03/23 17:52:07;;;;;;;;;;;;;;;12.73;30.94;99523.59;4829367;29;19971;-67
2022/03/23 17:54:37;;;;;;;;;;;;;;;12.73;30.96;99524.41;4825290;29;19960;-67
2022/03/23 17:57:05;;;;;;;;;;;;;;;12.65;31.32;99522.69;4816559;29;19956;-67
2022/03/23 17:59:32;;;;;;;;;;;;;;;12.61;31.33;99526.66;4826226;29;19954;-67
2022/03/23 18:02:07;;;;;;;;;;;;;;;12.56;31.57;99527.78;4827656;29;19952;-67
2022/03/23 18:04:38;;;;;;;;;;;;;;;12.60;31.23;99525.03;4810015;29;19951;-67
2022/03/23 18:07:06;;;;;;;;;;;;;;;12.56;31.42;99526.97;4823669;29;19957;-68
2022/03/23 18:09:34;;;;;;;;;;;;;;;12.48;31.82;99535.31;4810572;29;19957;-67
2022/03/23 18:12:04;;;;;;;;;;;;;;;12.45;31.69;99524.03;4817282;29;19986;-67
2022/03/23 18:14:32;;;;;;;;;;;;;;;12.41;31.65;99532.41;4828046;29;19957;-67
2022/03/23 18:16:59;;;;;;;;;;;;;;;12.46;31.40;99534.88;4828757;29;19957;-67
2022/03/23 18:19:27;;;;;;;;;;;;;;;12.48;31.77;99535.31;4824267;29;19958;-69
2022/03/23 18:21:54;;;;;;;;;;;;;;;12.53;31.33;99537.78;4826142;29;20029;-69
2022/03/23 18:24:21;;;;;;;;;;;;;;;12.46;31.64;99534.88;4830656;29;19949;-69
2022/03/23 18:26:49;;;;;;;;;;;;;;;12.45;32.19;99536.06;4827368;29;19953;-69
2022/03/23 18:29:16;;;;;;;;;;;;;;;12.48;31.84;99535.31;4824825;29;19951;-69
2022/03/23 18:31:44;;;;;;;;;;;;;;;12.53;31.56;99534.16;4826203;29;19965;-67
2022/03/23 18:34:11;;;;;;;;;;;;;;;12.48;32.20;99532.50;4827139;29;19957;-67
2022/03/23 18:36:39;;;;;;;;;;;;;;;12.46;32.06;99534.88;4826660;29;19952;-67
2022/03/23 18:39:06;;;;;;;;;;;;;;;12.45;31.94;99538.06;4821561;29;19949;-67
2022/03/23 18:41:35;;;;;;;;;;;;;;;12.43;31.76;99532.84;4824783;29;19952;-67
2022/03/23 18:44:04;;;;;;;;;;;;;;;12.45;32.15;99529.63;4819157;29;19949;-67
2022/03/23 18:46:32;;;;;;;;;;;;;;;12.47;32.20;99539.28;4826906;29;19948;-67
2022/03/23 18:48:59;;;;;;;;;;;;;;;12.49;31.90;99542.53;4824333;29;19952;-67
2022/03/23 18:51:26;;;;;;;;;;;;;;;12.60;31.62;99541.84;4820157;29;19968;-67
2022/03/23 18:53:55;;;;;;;;;;;;;;;12.49;32.00;99536.13;4824721;29;19951;-67
2022/03/23 18:56:22;;;;;;;;;;;;;;;12.43;32.45;99540.44;4817036;29;20246;-67
2022/03/23 18:58:51;;;;;;;;;;;;;;;12.41;32.27;99540.81;4825532;29;19953;-67
2022/03/23 19:01:18;;;;;;;;;;;;;;;12.33;32.42;99539.09;4824975;29;19954;-67
2022/03/23 19:03:48;;;;;;;;;;;;;;;12.33;32.39;99550.31;4820415;29;19957;-67
2022/03/23 19:06:16;;;;;;;;;;;;;;;12.35;32.45;99545.13;4822484;29;19949;-67
2022/03/23 19:08:46;;;;;;;;;;;;;;;12.32;32.90;99554.31;4820091;29;19950;-67
2022/03/23 19:11:14;;;;;;;;;;;;;;;12.33;32.91;99550.31;4813483;29;19971;-67
2022/03/23 19:13:42;;;;;;;;;;;;;;;12.29;32.67;99549.47;4822235;29;20021;-67
2022/03/23 19:16:11;;;;;;;;;;;;;;;12.25;32.86;99554.22;4814412;29;20228;-67
2022/03/23 19:18:39;;;;;;;;;;;;;;;12.23;32.77;99555.78;4814901;29;19953;-67
2022/03/23 19:21:08;;;;;;;;;;;;;;;12.23;33.15;99552.97;4819320;29;19953;-67
2022/03/23 19:23:37;;;;;;;;;;;;;;;12.20;32.75;99560.13;4818714;29;19955;-67
2022/03/23 19:26:04;;;;;;;;;;;;;;;12.21;32.79;99556.16;4825879;29;19956;-67
2022/03/23 19:28:36;;;;;;;;;;;;;;;12.22;32.82;99549.38;4827431;29;19951;-67
2022/03/23 19:31:03;;;;;;;;;;;;;;;12.25;32.30;99562.63;4817670;29;19950;-67
2022/03/23 19:33:31;;;;;;;;;;;;;;;12.26;32.28;99553.03;4824229;29;19952;-67
2022/03/23 19:35:58;;;;;;;;;;;;;;;12.30;31.88;99551.06;4811402;29;19959;-68
2022/03/23 19:38:26;;;;;;;;;;;;;;;12.29;32.07;99549.47;4811788;29;19956;-67
2022/03/23 19:40:54;;;;;;;;;;;;;;;12.26;31.89;99552.22;4818202;29;19958;-67
2022/03/23 19:43:22;;;;;;;;;;;;;;;12.22;32.26;99555.00;4824782;29;19983;-67
2022/03/23 19:45:50;;;;;;;;;;;;;;;12.18;31.72;99558.91;4816152;29;19958;-67
2022/03/23 19:48:17;;;;;;;;;;;;;;;12.17;32.22;99557.28;4812983;29;19949;-67
2022/03/23 19:50:45;;;;;;;;;;;;;;;12.14;32.07;99556.06;4826179;29;19976;-67
2022/03/23 19:53:13;;;;;;;;;;;;;;;12.19;32.19;99561.34;4822092;29;19965;-67
2022/03/23 19:55:40;;;;;;;;;;;;;;;12.17;31.73;99558.13;4824495;29;19962;-67
2022/03/23 19:58:08;;;;;;;;;;;;;;;12.15;32.01;99554.84;4823190;29;19949;-67
2022/03/23 20:00:36;;;;;;;;;;;;;;;12.13;31.89;99564.84;4824913;29;19951;-67
2022/03/23 20:03:03;;;;;;;;;;;;;;;12.07;32.22;99544.75;4827018;29;19950;-68
2022/03/23 20:05:31;;;;;;;;;;;;;;;12.03;32.05;99563.47;4814161;29;19961;-67
2022/03/23 20:07:59;;;;;;;;;;;;;;;11.99;31.64;99553.41;4829652;29;19962;-67
2022/03/23 20:10:28;;;;;;;;;;;;;;;11.96;31.75;99557.78;4817555;29;19976;-67
2022/03/23 20:12:56;;;;;;;;;;;;;;;11.90;31.63;99561.28;4818162;29;19967;-67
2022/03/23 20:15:23;;;;;;;;;;;;;;;11.84;31.57;99553.19;4820433;29;19967;-67
2022/03/23 20:17:52;;;;;;;;;;;;;;;11.80;31.27;99557.13;4819260;29;19953;-67
2022/03/23 20:20:19;;;;;;;;;;;;;;;11.78;31.16;99565.09;4823313;29;19950;-67
2022/03/23 20:22:47;;;;;;;;;;;;;;;11.76;31.28;99565.44;4815624;29;20221;-67
2022/03/23 20:25:14;;;;;;;;;;;;;;;11.72;31.07;99566.59;4828680;29;19965;-67
2022/03/23 20:27:42;;;;;;;;;;;;;;;11.65;31.69;99563.63;4824661;29;20238;-67
